sensor_id;sensor_type;location;lat;lon;timestamp;P1;durP1;ratioP1;P2;durP2;ratioP2
8365;SDS011;4220;42.502;24.188;2023-02-15T00:01:43;16.97;;;12.40;;
8365;SDS011;4220;42.502;24.188;2023-02-15T00:04:12;23.77;;;16.00;;
8365;SDS011;4220;42.502;24.188;2023-02-15T00:06:40;24.70;;;15.13;;
8365;SDS011;4220;42.502;24.188;2023-02-15T00:09:08;36.40;;;16.10;;
8365;SDS011;4220;42.502;24.188;2023-02-15T00:11:35;23.87;;;16.17;;
8365;SDS011;4220;42.502;24.188;2023-02-15T00:14:15;25.77;;;16.40;;
8365;SDS011;4220;42.502;24.188;2023-02-15T00:16:43;22.20;;;15.80;;
8365;SDS011;4220;42.502;24.188;2023-02-15T00:19:11;26.90;;;15.40;;
8365;SDS011;4220;42.502;24.188;2023-02-15T00:21:39;40.53;;;18.07;;
8365;SDS011;4220;42.502;24.188;2023-02-15T00:24:08;27.83;;;18.27;;
8365;SDS011;4220;42.502;24.188;2023-02-15T00:26:38;32.23;;;20.53;;
8365;SDS011;4220;42.502;24.188;2023-02-15T00:29:05;30.80;;;20.23;;
8365;SDS011;4220;42.502;24.188;2023-02-15T00:31:32;22.33;;;15.37;;
8365;SDS011;4220;42.502;24.188;2023-02-15T00:34:01;23.63;;;14.77;;
8365;SDS011;4220;42.502;24.188;2023-02-15T00:36:28;26.10;;;18.40;;
8365;SDS011;4220;42.502;24.188;2023-02-15T00:38:55;28.63;;;18.93;;
8365;SDS011;4220;42.502;24.188;2023-02-15T00:41:23;22.40;;;16.07;;
8365;SDS011;4220;42.502;24.188;2023-02-15T00:43:50;23.80;;;15.77;;
8365;SDS011;4220;42.502;24.188;2023-02-15T00:46:17;25.90;;;17.63;;
8365;SDS011;4220;42.502;24.188;2023-02-15T00:48:44;25.67;;;17.47;;
8365;SDS011;4220;42.502;24.188;2023-02-15T00:51:10;23.47;;;14.73;;
8365;SDS011;4220;42.502;24.188;2023-02-15T00:53:37;18.17;;;13.80;;
8365;SDS011;4220;42.502;24.188;2023-02-15T00:56:04;23.80;;;15.27;;
8365;SDS011;4220;42.502;24.188;2023-02-15T00:58:32;23.33;;;15.67;;
8365;SDS011;4220;42.502;24.188;2023-02-15T01:01:02;24.40;;;16.10;;
8365;SDS011;4220;42.502;24.188;2023-02-15T01:03:30;22.90;;;15.60;;
8365;SDS011;4220;42.502;24.188;2023-02-15T01:05:57;25.23;;;16.73;;
8365;SDS011;4220;42.502;24.188;2023-02-15T01:08:24;23.57;;;15.03;;
8365;SDS011;4220;42.502;24.188;2023-02-15T01:10:51;24.50;;;16.57;;
8365;SDS011;4220;42.502;24.188;2023-02-15T01:13:18;20.80;;;14.57;;
8365;SDS011;4220;42.502;24.188;2023-02-15T01:15:51;25.73;;;16.73;;
8365;SDS011;4220;42.502;24.188;2023-02-15T01:18:19;22.63;;;16.63;;
8365;SDS011;4220;42.502;24.188;2023-02-15T01:20:46;26.30;;;18.10;;
8365;SDS011;4220;42.502;24.188;2023-02-15T01:23:13;27.43;;;17.60;;
8365;SDS011;4220;42.502;24.188;2023-02-15T01:25:40;27.90;;;17.60;;
8365;SDS011;4220;42.502;24.188;2023-02-15T01:28:07;26.60;;;18.10;;
8365;SDS011;4220;42.502;24.188;2023-02-15T01:30:34;14.67;;;11.50;;
8365;SDS011;4220;42.502;24.188;2023-02-15T01:33:02;22.43;;;15.37;;
8365;SDS011;4220;42.502;24.188;2023-02-15T01:35:29;22.27;;;14.63;;
8365;SDS011;4220;42.502;24.188;2023-02-15T01:37:56;23.57;;;17.13;;
8365;SDS011;4220;42.502;24.188;2023-02-15T01:40:23;26.07;;;17.67;;
8365;SDS011;4220;42.502;24.188;2023-02-15T01:42:51;27.13;;;18.27;;
8365;SDS011;4220;42.502;24.188;2023-02-15T01:45:20;28.40;;;18.87;;
8365;SDS011;4220;42.502;24.188;2023-02-15T01:47:50;21.10;;;14.30;;
8365;SDS011;4220;42.502;24.188;2023-02-15T01:50:24;25.60;;;17.70;;
8365;SDS011;4220;42.502;24.188;2023-02-15T01:52:55;26.40;;;18.07;;
8365;SDS011;4220;42.502;24.188;2023-02-15T01:55:26;26.53;;;15.93;;
8365;SDS011;4220;42.502;24.188;2023-02-15T01:57:56;26.67;;;16.83;;
8365;SDS011;4220;42.502;24.188;2023-02-15T02:00:23;23.13;;;15.30;;
8365;SDS011;4220;42.502;24.188;2023-02-15T02:02:51;26.73;;;18.90;;
8365;SDS011;4220;42.502;24.188;2023-02-15T02:05:21;31.10;;;20.00;;
8365;SDS011;4220;42.502;24.188;2023-02-15T02:07:50;30.73;;;19.13;;
8365;SDS011;4220;42.502;24.188;2023-02-15T02:10:20;28.03;;;19.43;;
8365;SDS011;4220;42.502;24.188;2023-02-15T02:12:49;19.10;;;13.33;;
8365;SDS011;4220;42.502;24.188;2023-02-15T02:15:19;27.50;;;19.10;;
8365;SDS011;4220;42.502;24.188;2023-02-15T02:17:54;23.10;;;14.47;;
8365;SDS011;4220;42.502;24.188;2023-02-15T02:26:32;24.33;;;13.57;;
8365;SDS011;4220;42.502;24.188;2023-02-15T02:32:27;22.73;;;15.93;;
8365;SDS011;4220;42.502;24.188;2023-02-15T02:35:15;29.10;;;19.30;;
8365;SDS011;4220;42.502;24.188;2023-02-15T02:37:48;29.20;;;17.83;;
8365;SDS011;4220;42.502;24.188;2023-02-15T02:40:23;23.70;;;16.90;;
8365;SDS011;4220;42.502;24.188;2023-02-15T02:42:59;23.43;;;16.30;;
8365;SDS011;4220;42.502;24.188;2023-02-15T02:45:28;21.73;;;15.33;;
8365;SDS011;4220;42.502;24.188;2023-02-15T02:48:03;21.03;;;14.40;;
8365;SDS011;4220;42.502;24.188;2023-02-15T02:50:38;26.03;;;17.43;;
8365;SDS011;4220;42.502;24.188;2023-02-15T02:53:06;27.37;;;16.53;;
8365;SDS011;4220;42.502;24.188;2023-02-15T02:55:34;29.10;;;19.33;;
8365;SDS011;4220;42.502;24.188;2023-02-15T02:58:04;27.37;;;17.67;;
8365;SDS011;4220;42.502;24.188;2023-02-15T03:00:35;22.23;;;15.70;;
8365;SDS011;4220;42.502;24.188;2023-02-15T03:03:06;29.60;;;18.80;;
8365;SDS011;4220;42.502;24.188;2023-02-15T03:05:42;31.17;;;22.03;;
8365;SDS011;4220;42.502;24.188;2023-02-15T03:08:11;27.53;;;18.93;;
8365;SDS011;4220;42.502;24.188;2023-02-15T03:10:46;33.27;;;20.97;;
8365;SDS011;4220;42.502;24.188;2023-02-15T03:13:14;27.93;;;17.13;;
8365;SDS011;4220;42.502;24.188;2023-02-15T03:15:42;32.20;;;20.57;;
8365;SDS011;4220;42.502;24.188;2023-02-15T03:18:29;28.30;;;18.23;;
8365;SDS011;4220;42.502;24.188;2023-02-15T03:21:01;29.43;;;20.40;;
8365;SDS011;4220;42.502;24.188;2023-02-15T03:23:31;29.07;;;19.50;;
8365;SDS011;4220;42.502;24.188;2023-02-15T03:26:00;30.47;;;19.10;;
8365;SDS011;4220;42.502;24.188;2023-02-15T03:28:30;32.70;;;21.23;;
8365;SDS011;4220;42.502;24.188;2023-02-15T03:31:03;32.00;;;19.90;;
8365;SDS011;4220;42.502;24.188;2023-02-15T03:33:31;27.73;;;19.43;;
8365;SDS011;4220;42.502;24.188;2023-02-15T03:36:04;26.93;;;17.90;;
8365;SDS011;4220;42.502;24.188;2023-02-15T03:38:36;18.63;;;14.00;;
8365;SDS011;4220;42.502;24.188;2023-02-15T03:41:17;21.17;;;14.03;;
8365;SDS011;4220;42.502;24.188;2023-02-15T03:43:47;17.00;;;12.17;;
8365;SDS011;4220;42.502;24.188;2023-02-15T03:46:20;17.03;;;11.93;;
8365;SDS011;4220;42.502;24.188;2023-02-15T03:48:53;19.13;;;12.87;;
8365;SDS011;4220;42.502;24.188;2023-02-15T03:51:25;23.47;;;15.30;;
8365;SDS011;4220;42.502;24.188;2023-02-15T03:54:02;20.53;;;14.30;;
8365;SDS011;4220;42.502;24.188;2023-02-15T03:56:30;23.80;;;14.70;;
8365;SDS011;4220;42.502;24.188;2023-02-15T03:58:59;28.47;;;17.27;;
8365;SDS011;4220;42.502;24.188;2023-02-15T04:01:45;24.50;;;15.10;;
8365;SDS011;4220;42.502;24.188;2023-02-15T04:04:24;27.23;;;17.23;;
8365;SDS011;4220;42.502;24.188;2023-02-15T04:06:56;26.67;;;16.17;;
8365;SDS011;4220;42.502;24.188;2023-02-15T04:09:23;23.33;;;16.30;;
8365;SDS011;4220;42.502;24.188;2023-02-15T04:12:07;33.53;;;21.27;;
8365;SDS011;4220;42.502;24.188;2023-02-15T04:14:34;23.20;;;16.70;;
8365;SDS011;4220;42.502;24.188;2023-02-15T04:17:19;30.10;;;19.23;;
8365;SDS011;4220;42.502;24.188;2023-02-15T04:19:45;22.97;;;16.37;;
8365;SDS011;4220;42.502;24.188;2023-02-15T04:22:31;23.83;;;16.73;;
8365;SDS011;4220;42.502;24.188;2023-02-15T04:25:15;31.03;;;22.40;;
8365;SDS011;4220;42.502;24.188;2023-02-15T04:27:42;25.83;;;18.07;;
8365;SDS011;4220;42.502;24.188;2023-02-15T04:30:11;18.27;;;14.07;;
8365;SDS011;4220;42.502;24.188;2023-02-15T04:32:40;17.90;;;12.10;;
8365;SDS011;4220;42.502;24.188;2023-02-15T04:35:07;18.07;;;11.57;;
8365;SDS011;4220;42.502;24.188;2023-02-15T04:37:36;17.30;;;11.43;;
8365;SDS011;4220;42.502;24.188;2023-02-15T04:40:03;16.33;;;11.37;;
8365;SDS011;4220;42.502;24.188;2023-02-15T04:42:31;16.83;;;11.60;;
8365;SDS011;4220;42.502;24.188;2023-02-15T04:44:58;19.73;;;12.70;;
8365;SDS011;4220;42.502;24.188;2023-02-15T04:47:25;20.77;;;13.37;;
8365;SDS011;4220;42.502;24.188;2023-02-15T04:49:52;17.53;;;12.13;;
8365;SDS011;4220;42.502;24.188;2023-02-15T04:52:18;28.30;;;18.43;;
8365;SDS011;4220;42.502;24.188;2023-02-15T04:54:47;26.77;;;18.30;;
8365;SDS011;4220;42.502;24.188;2023-02-15T04:57:13;35.17;;;22.97;;
8365;SDS011;4220;42.502;24.188;2023-02-15T04:59:40;50.73;;;30.80;;
8365;SDS011;4220;42.502;24.188;2023-02-15T05:02:07;45.03;;;25.23;;
8365;SDS011;4220;42.502;24.188;2023-02-15T05:04:34;44.30;;;26.23;;
8365;SDS011;4220;42.502;24.188;2023-02-15T05:07:01;55.17;;;31.93;;
8365;SDS011;4220;42.502;24.188;2023-02-15T05:09:27;33.63;;;21.60;;
8365;SDS011;4220;42.502;24.188;2023-02-15T05:11:56;26.43;;;17.80;;
8365;SDS011;4220;42.502;24.188;2023-02-15T05:14:22;25.73;;;16.17;;
8365;SDS011;4220;42.502;24.188;2023-02-15T05:16:49;34.27;;;22.00;;
8365;SDS011;4220;42.502;24.188;2023-02-15T05:19:16;71.70;;;34.43;;
8365;SDS011;4220;42.502;24.188;2023-02-15T05:21:43;35.93;;;22.33;;
8365;SDS011;4220;42.502;24.188;2023-02-15T05:24:10;36.87;;;21.77;;
8365;SDS011;4220;42.502;24.188;2023-02-15T05:26:56;27.97;;;18.67;;
8365;SDS011;4220;42.502;24.188;2023-02-15T05:29:40;29.00;;;19.20;;
8365;SDS011;4220;42.502;24.188;2023-02-15T05:32:07;26.93;;;19.07;;
8365;SDS011;4220;42.502;24.188;2023-02-15T05:34:33;39.60;;;23.57;;
8365;SDS011;4220;42.502;24.188;2023-02-15T05:37:00;33.93;;;21.77;;
8365;SDS011;4220;42.502;24.188;2023-02-15T05:39:27;35.87;;;22.70;;
8365;SDS011;4220;42.502;24.188;2023-02-15T05:41:57;28.47;;;18.00;;
8365;SDS011;4220;42.502;24.188;2023-02-15T05:44:25;32.37;;;21.00;;
8365;SDS011;4220;42.502;24.188;2023-02-15T05:46:51;33.60;;;22.57;;
8365;SDS011;4220;42.502;24.188;2023-02-15T05:49:18;37.83;;;22.37;;
8365;SDS011;4220;42.502;24.188;2023-02-15T05:51:45;31.13;;;20.83;;
8365;SDS011;4220;42.502;24.188;2023-02-15T05:54:12;30.57;;;19.13;;
8365;SDS011;4220;42.502;24.188;2023-02-15T05:56:39;28.47;;;17.63;;
8365;SDS011;4220;42.502;24.188;2023-02-15T05:59:07;33.63;;;22.27;;
8365;SDS011;4220;42.502;24.188;2023-02-15T06:01:34;35.37;;;22.87;;
8365;SDS011;4220;42.502;24.188;2023-02-15T06:04:00;27.73;;;18.03;;
8365;SDS011;4220;42.502;24.188;2023-02-15T06:06:27;33.57;;;21.90;;
8365;SDS011;4220;42.502;24.188;2023-02-15T06:08:54;33.00;;;23.53;;
8365;SDS011;4220;42.502;24.188;2023-02-15T06:11:21;33.77;;;21.73;;
8365;SDS011;4220;42.502;24.188;2023-02-15T06:13:48;23.73;;;15.80;;
8365;SDS011;4220;42.502;24.188;2023-02-15T06:16:16;34.83;;;22.07;;
8365;SDS011;4220;42.502;24.188;2023-02-15T06:18:43;35.40;;;22.37;;
8365;SDS011;4220;42.502;24.188;2023-02-15T06:21:09;36.50;;;24.77;;
8365;SDS011;4220;42.502;24.188;2023-02-15T06:23:36;37.70;;;24.70;;
8365;SDS011;4220;42.502;24.188;2023-02-15T06:26:03;25.00;;;16.07;;
8365;SDS011;4220;42.502;24.188;2023-02-15T06:28:30;36.30;;;23.67;;
8365;SDS011;4220;42.502;24.188;2023-02-15T06:30:57;30.67;;;21.10;;
8365;SDS011;4220;42.502;24.188;2023-02-15T06:33:25;31.30;;;20.37;;
8365;SDS011;4220;42.502;24.188;2023-02-15T06:35:55;26.83;;;17.10;;
8365;SDS011;4220;42.502;24.188;2023-02-15T06:38:22;32.00;;;21.87;;
8365;SDS011;4220;42.502;24.188;2023-02-15T06:40:48;30.93;;;21.30;;
8365;SDS011;4220;42.502;24.188;2023-02-15T06:43:15;31.83;;;21.47;;
8365;SDS011;4220;42.502;24.188;2023-02-15T06:45:42;33.93;;;22.20;;
8365;SDS011;4220;42.502;24.188;2023-02-15T06:48:09;23.20;;;14.17;;
8365;SDS011;4220;42.502;24.188;2023-02-15T06:50:37;24.00;;;15.40;;
8365;SDS011;4220;42.502;24.188;2023-02-15T06:53:04;33.83;;;21.90;;
8365;SDS011;4220;42.502;24.188;2023-02-15T06:55:31;31.50;;;21.43;;
8365;SDS011;4220;42.502;24.188;2023-02-15T06:57:58;29.10;;;19.43;;
8365;SDS011;4220;42.502;24.188;2023-02-15T07:00:25;25.50;;;18.77;;
8365;SDS011;4220;42.502;24.188;2023-02-15T07:02:53;32.50;;;20.97;;
8365;SDS011;4220;42.502;24.188;2023-02-15T07:05:22;32.90;;;22.40;;
8365;SDS011;4220;42.502;24.188;2023-02-15T07:07:51;26.00;;;17.60;;
8365;SDS011;4220;42.502;24.188;2023-02-15T07:10:18;31.63;;;18.73;;
8365;SDS011;4220;42.502;24.188;2023-02-15T07:12:45;28.10;;;18.10;;
8365;SDS011;4220;42.502;24.188;2023-02-15T07:15:12;27.07;;;19.00;;
8365;SDS011;4220;42.502;24.188;2023-02-15T07:17:40;30.20;;;20.07;;
8365;SDS011;4220;42.502;24.188;2023-02-15T07:20:08;31.20;;;19.17;;
8365;SDS011;4220;42.502;24.188;2023-02-15T07:22:37;21.90;;;14.10;;
8365;SDS011;4220;42.502;24.188;2023-02-15T07:25:06;27.43;;;19.50;;
8365;SDS011;4220;42.502;24.188;2023-02-15T07:27:34;30.03;;;20.63;;
8365;SDS011;4220;42.502;24.188;2023-02-15T07:30:01;25.67;;;18.17;;
8365;SDS011;4220;42.502;24.188;2023-02-15T07:32:30;30.57;;;20.80;;
8365;SDS011;4220;42.502;24.188;2023-02-15T07:34:59;37.20;;;24.10;;
8365;SDS011;4220;42.502;24.188;2023-02-15T07:37:26;30.90;;;20.43;;
8365;SDS011;4220;42.502;24.188;2023-02-15T07:39:54;25.73;;;18.37;;
8365;SDS011;4220;42.502;24.188;2023-02-15T07:42:22;27.20;;;20.53;;
8365;SDS011;4220;42.502;24.188;2023-02-15T07:44:49;26.13;;;18.90;;
8365;SDS011;4220;42.502;24.188;2023-02-15T07:47:15;21.00;;;15.07;;
8365;SDS011;4220;42.502;24.188;2023-02-15T07:49:42;14.47;;;12.23;;
8365;SDS011;4220;42.502;24.188;2023-02-15T07:52:09;26.80;;;18.50;;
8365;SDS011;4220;42.502;24.188;2023-02-15T07:54:36;19.97;;;15.13;;
8365;SDS011;4220;42.502;24.188;2023-02-15T07:57:03;27.50;;;19.40;;
8365;SDS011;4220;42.502;24.188;2023-02-15T07:59:31;22.20;;;15.40;;
8365;SDS011;4220;42.502;24.188;2023-02-15T08:01:58;31.43;;;15.73;;
8365;SDS011;4220;42.502;24.188;2023-02-15T08:04:25;19.30;;;14.27;;
8365;SDS011;4220;42.502;24.188;2023-02-15T08:06:52;20.30;;;13.47;;
8365;SDS011;4220;42.502;24.188;2023-02-15T08:09:20;23.33;;;14.90;;
8365;SDS011;4220;42.502;24.188;2023-02-15T08:11:47;22.17;;;14.97;;
8365;SDS011;4220;42.502;24.188;2023-02-15T08:14:15;21.43;;;16.37;;
8365;SDS011;4220;42.502;24.188;2023-02-15T08:16:45;19.03;;;13.77;;
8365;SDS011;4220;42.502;24.188;2023-02-15T08:19:14;21.13;;;13.90;;
8365;SDS011;4220;42.502;24.188;2023-02-15T08:21:43;24.30;;;17.77;;
8365;SDS011;4220;42.502;24.188;2023-02-15T08:24:12;25.10;;;17.70;;
8365;SDS011;4220;42.502;24.188;2023-02-15T08:26:40;21.37;;;12.37;;
8365;SDS011;4220;42.502;24.188;2023-02-15T08:29:08;20.27;;;14.90;;
8365;SDS011;4220;42.502;24.188;2023-02-15T08:31:36;22.93;;;16.23;;
8365;SDS011;4220;42.502;24.188;2023-02-15T08:34:04;21.63;;;14.70;;
8365;SDS011;4220;42.502;24.188;2023-02-15T08:36:31;16.13;;;11.30;;
8365;SDS011;4220;42.502;24.188;2023-02-15T08:38:59;20.90;;;15.27;;
8365;SDS011;4220;42.502;24.188;2023-02-15T08:41:27;17.67;;;11.80;;
8365;SDS011;4220;42.502;24.188;2023-02-15T08:43:57;21.40;;;13.17;;
8365;SDS011;4220;42.502;24.188;2023-02-15T08:46:25;17.03;;;11.47;;
8365;SDS011;4220;42.502;24.188;2023-02-15T08:48:53;16.67;;;12.07;;
8365;SDS011;4220;42.502;24.188;2023-02-15T08:51:22;20.87;;;14.23;;
8365;SDS011;4220;42.502;24.188;2023-02-15T08:53:51;19.57;;;13.83;;
8365;SDS011;4220;42.502;24.188;2023-02-15T08:56:21;19.00;;;13.63;;
8365;SDS011;4220;42.502;24.188;2023-02-15T08:58:49;17.23;;;10.90;;
8365;SDS011;4220;42.502;24.188;2023-02-15T09:01:17;15.83;;;11.73;;
8365;SDS011;4220;42.502;24.188;2023-02-15T09:03:46;18.67;;;12.90;;
8365;SDS011;4220;42.502;24.188;2023-02-15T09:06:15;17.67;;;12.33;;
8365;SDS011;4220;42.502;24.188;2023-02-15T09:08:44;28.77;;;18.03;;
8365;SDS011;4220;42.502;24.188;2023-02-15T09:11:13;29.10;;;18.00;;
8365;SDS011;4220;42.502;24.188;2023-02-15T09:13:42;18.47;;;12.90;;
8365;SDS011;4220;42.502;24.188;2023-02-15T09:16:10;21.07;;;11.53;;
8365;SDS011;4220;42.502;24.188;2023-02-15T09:18:37;19.97;;;13.93;;
8365;SDS011;4220;42.502;24.188;2023-02-15T09:21:06;17.83;;;12.63;;
8365;SDS011;4220;42.502;24.188;2023-02-15T09:23:34;16.10;;;11.60;;
8365;SDS011;4220;42.502;24.188;2023-02-15T09:26:03;15.27;;;11.53;;
8365;SDS011;4220;42.502;24.188;2023-02-15T09:28:32;13.93;;;10.63;;
8365;SDS011;4220;42.502;24.188;2023-02-15T09:31:09;21.03;;;11.43;;
8365;SDS011;4220;42.502;24.188;2023-02-15T09:33:38;18.93;;;13.83;;
8365;SDS011;4220;42.502;24.188;2023-02-15T09:36:06;15.00;;;10.80;;
8365;SDS011;4220;42.502;24.188;2023-02-15T09:38:41;15.60;;;11.43;;
8365;SDS011;4220;42.502;24.188;2023-02-15T09:41:18;22.47;;;15.20;;
8365;SDS011;4220;42.502;24.188;2023-02-15T09:44:01;17.00;;;10.93;;
8365;SDS011;4220;42.502;24.188;2023-02-15T09:46:44;16.07;;;11.63;;
8365;SDS011;4220;42.502;24.188;2023-02-15T09:49:24;15.93;;;12.43;;
8365;SDS011;4220;42.502;24.188;2023-02-15T09:55:00;13.03;;;9.23;;
8365;SDS011;4220;42.502;24.188;2023-02-15T09:57:42;20.93;;;14.07;;
8365;SDS011;4220;42.502;24.188;2023-02-15T10:00:18;23.50;;;14.83;;
8365;SDS011;4220;42.502;24.188;2023-02-15T10:02:59;18.80;;;13.67;;
8365;SDS011;4220;42.502;24.188;2023-02-15T10:05:39;19.07;;;14.60;;
8365;SDS011;4220;42.502;24.188;2023-02-15T10:08:18;25.77;;;14.83;;
8365;SDS011;4220;42.502;24.188;2023-02-15T10:10:57;23.83;;;15.37;;
8365;SDS011;4220;42.502;24.188;2023-02-15T10:13:48;20.97;;;14.17;;
8365;SDS011;4220;42.502;24.188;2023-02-15T10:16:26;17.83;;;13.33;;
8365;SDS011;4220;42.502;24.188;2023-02-15T10:19:03;22.93;;;15.03;;
8365;SDS011;4220;42.502;24.188;2023-02-15T10:21:40;16.93;;;12.53;;
8365;SDS011;4220;42.502;24.188;2023-02-15T10:24:20;22.87;;;15.13;;
8365;SDS011;4220;42.502;24.188;2023-02-15T10:27:15;18.73;;;13.27;;
8365;SDS011;4220;42.502;24.188;2023-02-15T10:29:49;16.53;;;12.13;;
8365;SDS011;4220;42.502;24.188;2023-02-15T10:32:28;13.70;;;9.73;;
8365;SDS011;4220;42.502;24.188;2023-02-15T10:35:03;17.53;;;12.50;;
8365;SDS011;4220;42.502;24.188;2023-02-15T10:37:45;20.40;;;13.10;;
8365;SDS011;4220;42.502;24.188;2023-02-15T10:40:20;17.10;;;11.67;;
8365;SDS011;4220;42.502;24.188;2023-02-15T10:45:56;18.17;;;12.87;;
8365;SDS011;4220;42.502;24.188;2023-02-15T10:48:41;16.73;;;13.17;;
8365;SDS011;4220;42.502;24.188;2023-02-15T10:51:22;17.73;;;13.10;;
8365;SDS011;4220;42.502;24.188;2023-02-15T10:54:00;15.87;;;11.93;;
8365;SDS011;4220;42.502;24.188;2023-02-15T10:56:36;18.97;;;12.30;;
8365;SDS011;4220;42.502;24.188;2023-02-15T10:59:24;15.67;;;11.07;;
8365;SDS011;4220;42.502;24.188;2023-02-15T11:02:04;16.37;;;11.47;;
8365;SDS011;4220;42.502;24.188;2023-02-15T11:04:45;17.57;;;11.73;;
8365;SDS011;4220;42.502;24.188;2023-02-15T11:07:30;16.17;;;11.57;;
8365;SDS011;4220;42.502;24.188;2023-02-15T11:10:01;16.03;;;11.80;;
8365;SDS011;4220;42.502;24.188;2023-02-15T11:12:39;18.70;;;13.17;;
8365;SDS011;4220;42.502;24.188;2023-02-15T11:15:11;17.03;;;12.00;;
8365;SDS011;4220;42.502;24.188;2023-02-15T11:17:48;15.53;;;12.10;;
8365;SDS011;4220;42.502;24.188;2023-02-15T11:20:21;12.73;;;9.87;;
8365;SDS011;4220;42.502;24.188;2023-02-15T11:22:52;16.73;;;12.07;;
8365;SDS011;4220;42.502;24.188;2023-02-15T11:25:20;14.60;;;11.17;;
8365;SDS011;4220;42.502;24.188;2023-02-15T11:27:50;16.80;;;12.27;;
8365;SDS011;4220;42.502;24.188;2023-02-15T11:30:19;13.77;;;11.00;;
8365;SDS011;4220;42.502;24.188;2023-02-15T11:32:50;22.27;;;15.40;;
8365;SDS011;4220;42.502;24.188;2023-02-15T11:35:22;11.47;;;9.73;;
8365;SDS011;4220;42.502;24.188;2023-02-15T11:37:54;18.20;;;11.23;;
8365;SDS011;4220;42.502;24.188;2023-02-15T11:40:28;14.97;;;11.03;;
8365;SDS011;4220;42.502;24.188;2023-02-15T11:42:59;17.90;;;11.67;;
8365;SDS011;4220;42.502;24.188;2023-02-15T11:45:31;13.73;;;11.33;;
8365;SDS011;4220;42.502;24.188;2023-02-15T11:48:01;17.67;;;12.47;;
8365;SDS011;4220;42.502;24.188;2023-02-15T11:50:35;15.20;;;11.90;;
8365;SDS011;4220;42.502;24.188;2023-02-15T11:53:03;15.33;;;10.90;;
8365;SDS011;4220;42.502;24.188;2023-02-15T11:55:33;18.53;;;11.10;;
8365;SDS011;4220;42.502;24.188;2023-02-15T11:58:02;18.27;;;10.97;;
8365;SDS011;4220;42.502;24.188;2023-02-15T12:00:35;15.43;;;10.40;;
8365;SDS011;4220;42.502;24.188;2023-02-15T12:03:09;15.40;;;11.57;;
8365;SDS011;4220;42.502;24.188;2023-02-15T12:05:42;17.20;;;12.97;;
8365;SDS011;4220;42.502;24.188;2023-02-15T12:08:13;19.77;;;13.73;;
8365;SDS011;4220;42.502;24.188;2023-02-15T12:10:45;16.53;;;12.10;;
8365;SDS011;4220;42.502;24.188;2023-02-15T12:13:23;19.90;;;14.27;;
8365;SDS011;4220;42.502;24.188;2023-02-15T12:15:51;16.40;;;12.37;;
8365;SDS011;4220;42.502;24.188;2023-02-15T12:18:24;17.03;;;13.13;;
8365;SDS011;4220;42.502;24.188;2023-02-15T12:21:02;13.43;;;10.70;;
8365;SDS011;4220;42.502;24.188;2023-02-15T12:23:32;15.83;;;12.10;;
8365;SDS011;4220;42.502;24.188;2023-02-15T12:26:00;19.00;;;14.97;;
8365;SDS011;4220;42.502;24.188;2023-02-15T12:28:30;16.17;;;12.67;;
8365;SDS011;4220;42.502;24.188;2023-02-15T12:30:59;18.93;;;13.93;;
8365;SDS011;4220;42.502;24.188;2023-02-15T12:33:29;16.90;;;12.87;;
8365;SDS011;4220;42.502;24.188;2023-02-15T12:35:57;19.23;;;13.37;;
8365;SDS011;4220;42.502;24.188;2023-02-15T12:38:28;19.37;;;13.87;;
8365;SDS011;4220;42.502;24.188;2023-02-15T12:40:58;15.73;;;11.70;;
8365;SDS011;4220;42.502;24.188;2023-02-15T12:43:27;19.33;;;13.60;;
8365;SDS011;4220;42.502;24.188;2023-02-15T12:48:46;15.27;;;11.50;;
8365;SDS011;4220;42.502;24.188;2023-02-15T12:51:31;12.27;;;9.97;;
8365;SDS011;4220;42.502;24.188;2023-02-15T12:54:15;14.97;;;11.80;;
8365;SDS011;4220;42.502;24.188;2023-02-15T12:56:43;15.70;;;12.53;;
8365;SDS011;4220;42.502;24.188;2023-02-15T12:59:12;18.70;;;13.27;;
8365;SDS011;4220;42.502;24.188;2023-02-15T13:01:40;15.30;;;11.90;;
8365;SDS011;4220;42.502;24.188;2023-02-15T13:04:15;12.80;;;10.67;;
8365;SDS011;4220;42.502;24.188;2023-02-15T13:06:49;18.47;;;13.07;;
8365;SDS011;4220;42.502;24.188;2023-02-15T13:09:19;16.00;;;11.93;;
8365;SDS011;4220;42.502;24.188;2023-02-15T13:11:47;16.20;;;12.30;;
8365;SDS011;4220;42.502;24.188;2023-02-15T13:14:16;17.57;;;12.73;;
8365;SDS011;4220;42.502;24.188;2023-02-15T13:16:46;31.50;;;21.63;;
8365;SDS011;4220;42.502;24.188;2023-02-15T13:19:17;21.50;;;15.17;;
8365;SDS011;4220;42.502;24.188;2023-02-15T13:21:46;14.83;;;11.30;;
8365;SDS011;4220;42.502;24.188;2023-02-15T13:24:17;14.00;;;11.20;;
8365;SDS011;4220;42.502;24.188;2023-02-15T13:26:49;15.57;;;11.63;;
8365;SDS011;4220;42.502;24.188;2023-02-15T13:29:21;17.60;;;13.67;;
8365;SDS011;4220;42.502;24.188;2023-02-15T13:31:51;17.77;;;13.07;;
8365;SDS011;4220;42.502;24.188;2023-02-15T13:34:22;12.93;;;10.53;;
8365;SDS011;4220;42.502;24.188;2023-02-15T13:36:54;18.70;;;13.83;;
8365;SDS011;4220;42.502;24.188;2023-02-15T13:39:29;16.80;;;12.63;;
8365;SDS011;4220;42.502;24.188;2023-02-15T13:42:09;18.97;;;13.57;;
8365;SDS011;4220;42.502;24.188;2023-02-15T13:44:51;17.97;;;13.87;;
8365;SDS011;4220;42.502;24.188;2023-02-15T13:47:27;21.67;;;14.17;;
8365;SDS011;4220;42.502;24.188;2023-02-15T13:50:06;19.60;;;13.13;;
8365;SDS011;4220;42.502;24.188;2023-02-15T13:52:45;14.87;;;11.50;;
8365;SDS011;4220;42.502;24.188;2023-02-15T13:55:23;17.90;;;12.27;;
8365;SDS011;4220;42.502;24.188;2023-02-15T13:58:01;15.93;;;11.93;;
8365;SDS011;4220;42.502;24.188;2023-02-15T14:00:52;15.73;;;12.30;;
8365;SDS011;4220;42.502;24.188;2023-02-15T14:06:36;17.77;;;12.23;;
8365;SDS011;4220;42.502;24.188;2023-02-15T14:09:27;16.43;;;11.60;;
8365;SDS011;4220;42.502;24.188;2023-02-15T14:12:19;16.47;;;13.80;;
8365;SDS011;4220;42.502;24.188;2023-02-15T14:15:18;17.77;;;13.70;;
8365;SDS011;4220;42.502;24.188;2023-02-15T14:17:57;16.93;;;13.77;;
8365;SDS011;4220;42.502;24.188;2023-02-15T14:20:34;17.30;;;12.83;;
8365;SDS011;4220;42.502;24.188;2023-02-15T14:23:14;21.67;;;16.93;;
8365;SDS011;4220;42.502;24.188;2023-02-15T14:25:55;22.37;;;16.23;;
8365;SDS011;4220;42.502;24.188;2023-02-15T14:28:27;20.80;;;14.70;;
8365;SDS011;4220;42.502;24.188;2023-02-15T14:30:57;18.83;;;14.50;;
8365;SDS011;4220;42.502;24.188;2023-02-15T14:33:28;23.83;;;16.83;;
8365;SDS011;4220;42.502;24.188;2023-02-15T14:35:58;26.73;;;17.13;;
8365;SDS011;4220;42.502;24.188;2023-02-15T14:38:30;22.53;;;16.23;;
8365;SDS011;4220;42.502;24.188;2023-02-15T14:41:09;23.17;;;16.50;;
8365;SDS011;4220;42.502;24.188;2023-02-15T14:43:43;24.40;;;17.93;;
8365;SDS011;4220;42.502;24.188;2023-02-15T14:46:19;25.07;;;18.83;;
8365;SDS011;4220;42.502;24.188;2023-02-15T14:48:52;22.67;;;16.73;;
8365;SDS011;4220;42.502;24.188;2023-02-15T14:57:25;27.33;;;19.77;;
8365;SDS011;4220;42.502;24.188;2023-02-15T14:59:56;24.33;;;16.07;;
8365;SDS011;4220;42.502;24.188;2023-02-15T15:02:24;24.97;;;19.37;;
8365;SDS011;4220;42.502;24.188;2023-02-15T15:04:59;28.87;;;20.33;;
8365;SDS011;4220;42.502;24.188;2023-02-15T15:07:35;30.37;;;21.53;;
8365;SDS011;4220;42.502;24.188;2023-02-15T15:10:18;28.20;;;20.10;;
8365;SDS011;4220;42.502;24.188;2023-02-15T15:16:29;19.70;;;14.97;;
8365;SDS011;4220;42.502;24.188;2023-02-15T15:19:11;19.10;;;14.70;;
8365;SDS011;4220;42.502;24.188;2023-02-15T15:21:51;25.57;;;18.10;;
8365;SDS011;4220;42.502;24.188;2023-02-15T15:24:45;23.73;;;17.33;;
8365;SDS011;4220;42.502;24.188;2023-02-15T15:42:53;31.30;;;21.07;;
8365;SDS011;4220;42.502;24.188;2023-02-15T15:48:50;27.03;;;20.90;;
8365;SDS011;4220;42.502;24.188;2023-02-15T15:51:19;33.83;;;23.80;;